sensor_id;sensor_type;location;lat;lon;timestamp;pressure;altitude;pressure_sealevel;temperature;humidity
35908;BME280;22003;50.320;8.054;2023-03-01T05:02:24;100732.66;;;-4.54;96.54
35908;BME280;22003;50.320;8.054;2023-03-01T05:04:49;100726.63;;;-4.58;97.07
35908;BME280;22003;50.320;8.054;2023-03-01T05:07:15;100721.47;;;-4.58;96.95
35908;BME280;22003;50.320;8.054;2023-03-01T05:09:47;100728.34;;;-4.58;97.55
35908;BME280;22003;50.320;8.054;2023-03-01T05:12:13;100630.16;;;-5.12;97.91
35908;BME280;22003;50.320;8.054;2023-03-01T05:14:39;100671.50;;;-4.80;98.34
35908;BME280;22003;50.320;8.054;2023-03-01T05:17:05;100707.63;;;-4.44;97.44
35908;BME280;22003;50.320;8.054;2023-03-01T05:19:31;100715.38;;;-4.40;97.53
35908;BME280;22003;50.320;8.054;2023-03-01T05:21:58;100717.13;;;-4.45;97.56
35908;BME280;22003;50.320;8.054;2023-03-01T05:24:31;100687.00;;;-4.60;97.09
35908;BME280;22003;50.320;8.054;2023-03-01T05:26:57;100710.19;;;-4.29;96.72
35908;BME280;22003;50.320;8.054;2023-03-01T05:29:24;100617.16;;;-4.58;95.98
35908;BME280;22003;50.320;8.054;2023-03-01T05:31:58;100705.94;;;-4.47;94.50
35908;BME280;22003;50.320;8.054;2023-03-01T05:34:29;100671.47;;;-4.64;95.11
35908;BME280;22003;50.320;8.054;2023-03-01T05:36:55;100680.13;;;-4.88;95.23
35908;BME280;22003;50.320;8.054;2023-03-01T05:39:22;100707.66;;;-4.61;96.69
35908;BME280;22003;50.320;8.054;2023-03-01T05:41:48;100714.56;;;-4.43;97.30
35908;BME280;22003;50.320;8.054;2023-03-01T05:44:16;100636.16;;;-4.81;97.10
35908;BME280;22003;50.320;8.054;2023-03-01T05:46:42;100640.47;;;-4.86;96.28
35908;BME280;22003;50.320;8.054;2023-03-01T05:49:07;100711.94;;;-4.33;96.79
35908;BME280;22003;50.320;8.054;2023-03-01T05:51:32;100634.44;;;-4.80;96.96
35908;BME280;22003;50.320;8.054;2023-03-01T05:53:58;100712.78;;;-4.18;96.07
35908;BME280;22003;50.320;8.054;2023-03-01T05:56:24;100710.19;;;-4.25;95.76
35908;BME280;22003;50.320;8.054;2023-03-01T05:58:49;100620.69;;;-5.08;95.51
35908;BME280;22003;50.320;8.054;2023-03-01T06:01:15;100705.94;;;-4.56;95.69
35908;BME280;22003;50.320;8.054;2023-03-01T06:03:40;100699.91;;;-4.58;96.61
35908;BME280;22003;50.320;8.054;2023-03-01T06:06:05;100663.72;;;-4.89;96.40
35908;BME280;22003;50.320;8.054;2023-03-01T06:08:30;100693.88;;;-4.54;97.22
35908;BME280;22003;50.320;8.054;2023-03-01T06:10:55;100699.03;;;-4.56;96.79
35908;BME280;22003;50.320;8.054;2023-03-01T06:13:22;100698.19;;;-4.68;96.54
35908;BME280;22003;50.320;8.054;2023-03-01T06:15:48;100707.69;;;-4.70;96.99
35908;BME280;22003;50.320;8.054;2023-03-01T06:18:13;100676.66;;;-4.95;96.84
35908;BME280;22003;50.320;8.054;2023-03-01T06:20:38;100695.59;;;-4.53;98.00
35908;BME280;22003;50.320;8.054;2023-03-01T06:23:04;100637.00;;;-4.63;98.04
35908;BME280;22003;50.320;8.054;2023-03-01T06:25:29;100698.94;;;-4.08;96.63
35908;BME280;22003;50.320;8.054;2023-03-01T06:27:55;100703.25;;;-4.04;95.68
35908;BME280;22003;50.320;8.054;2023-03-01T06:30:22;100705.75;;;-3.83;95.53
35908;BME280;22003;50.320;8.054;2023-03-01T06:32:48;100718.63;;;-3.69;94.51
35908;BME280;22003;50.320;8.054;2023-03-01T06:35:15;100716.03;;;-3.64;94.59
35908;BME280;22003;50.320;8.054;2023-03-01T06:37:46;100716.06;;;-3.69;94.32
35908;BME280;22003;50.320;8.054;2023-03-01T06:40:11;100703.97;;;-3.65;95.27
35908;BME280;22003;50.320;8.054;2023-03-01T06:42:40;100651.38;;;-3.81;94.89
35908;BME280;22003;50.320;8.054;2023-03-01T06:45:07;100703.88;;;-3.53;94.65
35908;BME280;22003;50.320;8.054;2023-03-01T06:47:33;100623.81;;;-3.91;94.18
35908;BME280;22003;50.320;8.054;2023-03-01T06:49:59;100710.69;;;-3.32;93.45
35908;BME280;22003;50.320;8.054;2023-03-01T06:52:25;100696.88;;;-3.33;93.59
35908;BME280;22003;50.320;8.054;2023-03-01T06:54:50;100681.34;;;-3.36;93.30
35908;BME280;22003;50.320;8.054;2023-03-01T06:57:15;100708.09;;;-3.34;93.83
35908;BME280;22003;50.320;8.054;2023-03-01T06:59:40;100699.44;;;-3.30;94.01
35908;BME280;22003;50.320;8.054;2023-03-01T07:02:06;100669.28;;;-3.41;93.72
35908;BME280;22003;50.320;8.054;2023-03-01T07:04:31;100685.59;;;-3.29;94.05
35908;BME280;22003;50.320;8.054;2023-03-01T07:06:56;100688.94;;;-3.11;93.52
35908;BME280;22003;50.320;8.054;2023-03-01T07:09:23;100614.06;;;-3.51;93.27
35908;BME280;22003;50.320;8.054;2023-03-01T07:11:49;100700.88;;;-2.87;92.45
35908;BME280;22003;50.320;8.054;2023-03-01T07:14:14;100730.16;;;-2.75;92.13
35908;BME280;22003;50.320;8.054;2023-03-01T07:16:40;100699.00;;;-2.73;91.09
35908;BME280;22003;50.320;8.054;2023-03-01T07:19:05;100693.66;;;-2.56;90.89
35908;BME280;22003;50.320;8.054;2023-03-01T07:21:30;100690.22;;;-2.57;90.75
35908;BME280;22003;50.320;8.054;2023-03-01T07:23:56;100696.16;;;-2.44;91.16
35908;BME280;22003;50.320;8.054;2023-03-01T07:26:21;100688.34;;;-2.41;90.70
35908;BME280;22003;50.320;8.054;2023-03-01T07:28:46;100684.88;;;-2.40;90.15
35908;BME280;22003;50.320;8.054;2023-03-01T07:31:12;100681.22;;;-2.24;88.38
35908;BME280;22003;50.320;8.054;2023-03-01T07:33:37;100586.59;;;-2.71;88.45
35908;BME280;22003;50.320;8.054;2023-03-01T07:36:03;100598.59;;;-2.60;88.83
35908;BME280;22003;50.320;8.054;2023-03-01T07:38:29;100686.97;;;-1.94;88.49
35908;BME280;22003;50.320;8.054;2023-03-01T07:41:02;100683.34;;;-1.81;87.57
35908;BME280;22003;50.320;8.054;2023-03-01T07:43:29;100552.69;;;-2.54;86.87
35908;BME280;22003;50.320;8.054;2023-03-01T07:45:54;100667.53;;;-1.64;86.14
35908;BME280;22003;50.320;8.054;2023-03-01T07:48:20;100624.03;;;-1.50;84.85
35908;BME280;22003;50.320;8.054;2023-03-01T07:50:45;100604.28;;;-1.63;85.14
35908;BME280;22003;50.320;8.054;2023-03-01T07:53:10;100589.84;;;-1.84;86.17
35908;BME280;22003;50.320;8.054;2023-03-01T07:55:36;100625.72;;;-1.47;85.31
35908;BME280;22003;50.320;8.054;2023-03-01T07:58:02;100607.09;;;-1.77;85.34
35908;BME280;22003;50.320;8.054;2023-03-01T08:00:28;100625.81;;;-1.53;86.07
35908;BME280;22003;50.320;8.054;2023-03-01T08:02:53;100667.19;;;-1.38;86.74
35908;BME280;22003;50.320;8.054;2023-03-01T08:05:18;100662.97;;;-1.47;85.79
35908;BME280;22003;50.320;8.054;2023-03-01T08:07:43;100607.06;;;-1.75;87.28
35908;BME280;22003;50.320;8.054;2023-03-01T08:10:09;100655.22;;;-1.51;86.71
35908;BME280;22003;50.320;8.054;2023-03-01T08:12:35;100667.91;;;-1.30;87.46
35908;BME280;22003;50.320;8.054;2023-03-01T08:15:00;100672.03;;;-1.17;87.65
35908;BME280;22003;50.320;8.054;2023-03-01T08:17:25;100664.56;;;-0.83;88.28
35908;BME280;22003;50.320;8.054;2023-03-01T08:19:50;100681.41;;;-1.07;86.34
35908;BME280;22003;50.320;8.054;2023-03-01T08:22:16;100662.53;;;-0.67;86.62
35908;BME280;22003;50.320;8.054;2023-03-01T08:24:41;100670.00;;;-0.96;86.55
35908;BME280;22003;50.320;8.054;2023-03-01T08:27:06;100668.31;;;-0.99;86.60
35908;BME280;22003;50.320;8.054;2023-03-01T08:29:32;100671.34;;;-0.74;86.80
35908;BME280;22003;50.320;8.054;2023-03-01T08:31:58;100618.28;;;-1.15;86.65
35908;BME280;22003;50.320;8.054;2023-03-01T08:34:23;100644.31;;;-0.67;85.75
35908;BME280;22003;50.320;8.054;2023-03-01T08:36:48;100595.59;;;-1.07;85.74
35908;BME280;22003;50.320;8.054;2023-03-01T08:39:16;100671.22;;;-0.65;85.18
35908;BME280;22003;50.320;8.054;2023-03-01T08:41:43;100603.47;;;-1.11;84.68
35908;BME280;22003;50.320;8.054;2023-03-01T08:44:10;100665.88;;;-0.59;85.83
35908;BME280;22003;50.320;8.054;2023-03-01T08:46:38;100658.03;;;-0.57;83.86
35908;BME280;22003;50.320;8.054;2023-03-01T08:49:11;100610.63;;;-0.73;84.75
35908;BME280;22003;50.320;8.054;2023-03-01T08:51:37;100661.03;;;-0.31;85.86
35908;BME280;22003;50.320;8.054;2023-03-01T08:54:06;100645.59;;;0.04;84.85
35908;BME280;22003;50.320;8.054;2023-03-01T08:56:32;100665.66;;;0.00;84.72
35908;BME280;22003;50.320;8.054;2023-03-01T08:58:58;100647.53;;;-0.05;83.88
35908;BME280;22003;50.320;8.054;2023-03-01T09:01:23;100552.63;;;-0.35;84.08
35908;BME280;22003;50.320;8.054;2023-03-01T09:03:48;100631.13;;;-0.11;82.54
35908;BME280;22003;50.320;8.054;2023-03-01T09:06:14;100639.00;;;0.29;85.05
35908;BME280;22003;50.320;8.054;2023-03-01T09:08:45;100626.91;;;0.25;82.82
35908;BME280;22003;50.320;8.054;2023-03-01T09:11:14;100624.13;;;0.33;80.78
35908;BME280;22003;50.320;8.054;2023-03-01T09:13:41;100589.28;;;-0.02;80.97
35908;BME280;22003;50.320;8.054;2023-03-01T09:16:07;100626.13;;;0.60;81.44
35908;BME280;22003;50.320;8.054;2023-03-01T09:18:34;100624.09;;;0.71;80.63
35908;BME280;22003;50.320;8.054;2023-03-01T09:21:07;100629.97;;;0.81;79.14
35908;BME280;22003;50.320;8.054;2023-03-01T09:23:45;100618.09;;;0.69;78.96
35908;BME280;22003;50.320;8.054;2023-03-01T09:26:13;100616.22;;;0.74;78.56
35908;BME280;22003;50.320;8.054;2023-03-01T09:28:41;100615.78;;;0.93;78.62
35908;BME280;22003;50.320;8.054;2023-03-01T09:31:06;100579.59;;;0.79;78.12
35908;BME280;22003;50.320;8.054;2023-03-01T09:33:32;100611.72;;;0.81;78.66
35908;BME280;22003;50.320;8.054;2023-03-01T09:36:02;100612.31;;;0.92;78.22
35908;BME280;22003;50.320;8.054;2023-03-01T09:38:28;100603.03;;;1.15;77.30
35908;BME280;22003;50.320;8.054;2023-03-01T09:40:54;100607.28;;;1.84;78.37
35908;BME280;22003;50.320;8.054;2023-03-01T09:43:44;100608.97;;;1.21;76.66
35908;BME280;22003;50.320;8.054;2023-03-01T09:46:14;100605.75;;;1.10;75.03
35908;BME280;22003;50.320;8.054;2023-03-01T09:48:52;100603.00;;;1.49;76.84
35908;BME280;22003;50.320;8.054;2023-03-01T09:51:27;100611.13;;;1.38;76.76
35908;BME280;22003;50.320;8.054;2023-03-01T09:53:54;100594.16;;;1.22;76.62
35908;BME280;22003;50.320;8.054;2023-03-01T09:56:27;100589.84;;;1.53;75.58
35908;BME280;22003;50.320;8.054;2023-03-01T09:59:01;100581.16;;;1.20;74.49
35908;BME280;22003;50.320;8.054;2023-03-01T10:01:34;100546.31;;;1.21;76.38
35908;BME280;22003;50.320;8.054;2023-03-01T10:06:40;100585.91;;;1.70;74.80
35908;BME280;22003;50.320;8.054;2023-03-01T10:09:13;100586.50;;;1.48;74.39
35908;BME280;22003;50.320;8.054;2023-03-01T10:11:51;100576.53;;;1.63;73.61
35908;BME280;22003;50.320;8.054;2023-03-01T10:14:34;100581.22;;;1.81;74.78
35908;BME280;22003;50.320;8.054;2023-03-01T10:17:11;100572.31;;;2.18;73.88
35908;BME280;22003;50.320;8.054;2023-03-01T10:19:45;100554.06;;;1.87;72.15
35908;BME280;22003;50.320;8.054;2023-03-01T10:22:15;100552.34;;;1.85;71.90
35908;BME280;22003;50.320;8.054;2023-03-01T10:24:41;100565.47;;;2.42;72.77
35908;BME280;22003;50.320;8.054;2023-03-01T10:27:29;100560.16;;;2.15;72.98
35908;BME280;22003;50.320;8.054;2023-03-01T10:30:11;100551.84;;;2.02;71.35
35908;BME280;22003;50.320;8.054;2023-03-01T10:32:39;100483.91;;;2.02;72.77
35908;BME280;22003;50.320;8.054;2023-03-01T10:35:28;100558.50;;;3.20;72.06
35908;BME280;22003;50.320;8.054;2023-03-01T10:38:07;100548.22;;;2.62;70.10
35908;BME280;22003;50.320;8.054;2023-03-01T10:40:34;100541.88;;;2.15;70.23
35908;BME280;22003;50.320;8.054;2023-03-01T10:43:03;100524.19;;;2.51;70.07
35908;BME280;22003;50.320;8.054;2023-03-01T10:48:19;100527.81;;;2.99;70.93
35908;BME280;22003;50.320;8.054;2023-03-01T10:50:50;100523.59;;;3.44;68.08
35908;BME280;22003;50.320;8.054;2023-03-01T10:53:33;100525.84;;;3.05;68.26
35908;BME280;22003;50.320;8.054;2023-03-01T10:56:10;100438.06;;;2.45;68.59
35908;BME280;22003;50.320;8.054;2023-03-01T10:58:38;100512.38;;;3.41;68.08
35908;BME280;22003;50.320;8.054;2023-03-01T11:01:26;100522.16;;;2.86;67.23
35908;BME280;22003;50.320;8.054;2023-03-01T11:04:11;100445.59;;;2.54;69.20
35908;BME280;22003;50.320;8.054;2023-03-01T11:06:39;100525.66;;;3.11;68.85
35908;BME280;22003;50.320;8.054;2023-03-01T11:09:17;100518.75;;;3.09;68.61
35908;BME280;22003;50.320;8.054;2023-03-01T11:11:44;100496.63;;;2.92;68.21
35908;BME280;22003;50.320;8.054;2023-03-01T11:14:23;100510.38;;;3.48;68.71
35908;BME280;22003;50.320;8.054;2023-03-01T11:17:00;100475.97;;;2.85;67.13
35908;BME280;22003;50.320;8.054;2023-03-01T11:19:26;100500.97;;;3.65;70.15
35908;BME280;22003;50.320;8.054;2023-03-01T11:24:41;100500.66;;;3.26;67.80
35908;BME280;22003;50.320;8.054;2023-03-01T11:27:28;100500.06;;;3.90;67.90
35908;BME280;22003;50.320;8.054;2023-03-01T11:30:01;100477.34;;;4.33;66.21
35908;BME280;22003;50.320;8.054;2023-03-01T11:32:36;100480.63;;;4.17;64.88
35908;BME280;22003;50.320;8.054;2023-03-01T11:35:20;100489.91;;;3.81;67.03
35908;BME280;22003;50.320;8.054;2023-03-01T11:43:40;100474.03;;;4.29;67.21
35908;BME280;22003;50.320;8.054;2023-03-01T11:46:32;100466.88;;;4.11;64.14
35908;BME280;22003;50.320;8.054;2023-03-01T11:52:17;100449.59;;;4.27;61.79
35908;BME280;22003;50.320;8.054;2023-03-01T11:55:10;100448.53;;;4.94;64.57
35908;BME280;22003;50.320;8.054;2023-03-01T11:58:08;100445.44;;;5.63;60.32
35908;BME280;22003;50.320;8.054;2023-03-01T12:01:11;100451.97;;;4.96;61.17
35908;BME280;22003;50.320;8.054;2023-03-01T12:04:16;100435.69;;;6.02;60.02
35908;BME280;22003;50.320;8.054;2023-03-01T12:06:50;100370.19;;;5.79;58.22
35908;BME280;22003;50.320;8.054;2023-03-01T12:12:00;100428.97;;;4.60;61.53
35908;BME280;22003;50.320;8.054;2023-03-01T12:20:20;100413.91;;;4.86;59.77
35908;BME280;22003;50.320;8.054;2023-03-01T12:22:57;100409.69;;;4.82;61.54
35908;BME280;22003;50.320;8.054;2023-03-01T12:36:27;100383.63;;;5.16;61.60
35908;BME280;22003;50.320;8.054;2023-03-01T12:38:59;100377.50;;;4.97;60.86
35908;BME280;22003;50.320;8.054;2023-03-01T12:41:53;100387.25;;;4.95;62.30
35908;BME280;22003;50.320;8.054;2023-03-01T12:49:55;100379.00;;;5.21;62.68
35908;BME280;22003;50.320;8.054;2023-03-01T12:52:33;100369.63;;;5.16;60.61
35908;BME280;22003;50.320;8.054;2023-03-01T12:55:00;100364.47;;;5.14;60.81
35908;BME280;22003;50.320;8.054;2023-03-01T12:57:33;100363.84;;;5.28;60.86
35908;BME280;22003;50.320;8.054;2023-03-01T13:00:10;100354.25;;;5.08;60.98
35908;BME280;22003;50.320;8.054;2023-03-01T13:02:50;100330.00;;;4.83;60.45
35908;BME280;22003;50.320;8.054;2023-03-01T13:05:29;100335.28;;;5.20;60.36
35908;BME280;22003;50.320;8.054;2023-03-01T13:10:48;100334.22;;;5.79;57.67
35908;BME280;22003;50.320;8.054;2023-03-01T13:13:23;100326.00;;;6.22;58.15
35908;BME280;22003;50.320;8.054;2023-03-01T13:15:49;100305.81;;;6.40;57.63
35908;BME280;22003;50.320;8.054;2023-03-01T13:28:50;100336.75;;;5.64;57.71
35908;BME280;22003;50.320;8.054;2023-03-01T13:33:48;100290.34;;;5.26;58.06
35908;BME280;22003;50.320;8.054;2023-03-01T13:38:56;100315.19;;;5.74;58.81
35908;BME280;22003;50.320;8.054;2023-03-01T13:44:26;100315.38;;;5.52;58.32
35908;BME280;22003;50.320;8.054;2023-03-01T13:49:40;100314.66;;;5.85;59.12
35908;BME280;22003;50.320;8.054;2023-03-01T13:52:27;100301.03;;;6.64;56.56
35908;BME280;22003;50.320;8.054;2023-03-01T13:54:56;100292.97;;;5.99;57.43
35908;BME280;22003;50.320;8.054;2023-03-01T13:57:26;100297.91;;;5.51;58.00
35908;BME280;22003;50.320;8.054;2023-03-01T13:59:53;100207.25;;;4.88;58.55
35908;BME280;22003;50.320;8.054;2023-03-01T14:02:19;100276.22;;;5.82;58.35
35908;BME280;22003;50.320;8.054;2023-03-01T14:04:56;100289.56;;;5.97;56.42
35908;BME280;22003;50.320;8.054;2023-03-01T14:07:23;100276.72;;;6.58;56.18
35908;BME280;22003;50.320;8.054;2023-03-01T14:09:57;100295.84;;;5.75;56.65
35908;BME280;22003;50.320;8.054;2023-03-01T14:12:52;100287.53;;;5.85;56.81
35908;BME280;22003;50.320;8.054;2023-03-01T14:15:36;100284.09;;;5.65;56.20
35908;BME280;22003;50.320;8.054;2023-03-01T14:18:17;100289.34;;;5.82;58.52
35908;BME280;22003;50.320;8.054;2023-03-01T14:20:45;100245.31;;;5.34;57.09
35908;BME280;22003;50.320;8.054;2023-03-01T14:23:21;100269.69;;;6.08;56.16
35908;BME280;22003;50.320;8.054;2023-03-01T14:25:55;100287.44;;;5.86;55.89
35908;BME280;22003;50.320;8.054;2023-03-01T14:28:30;100270.91;;;5.84;56.75
35908;BME280;22003;50.320;8.054;2023-03-01T14:30:57;100282.69;;;5.94;55.90
35908;BME280;22003;50.320;8.054;2023-03-01T14:36:00;100273.13;;;6.93;53.56
35908;BME280;22003;50.320;8.054;2023-03-01T14:38:32;100264.50;;;6.57;54.37
35908;BME280;22003;50.320;8.054;2023-03-01T14:41:02;100212.84;;;6.55;54.43
35908;BME280;22003;50.320;8.054;2023-03-01T14:43:29;100267.34;;;6.86;55.53
35908;BME280;22003;50.320;8.054;2023-03-01T14:45:55;100264.06;;;6.32;56.75
35908;BME280;22003;50.320;8.054;2023-03-01T14:48:21;100255.34;;;5.79;54.99
35908;BME280;22003;50.320;8.054;2023-03-01T14:50:47;100264.84;;;5.82;56.03
35908;BME280;22003;50.320;8.054;2023-03-01T14:53:31;100258.94;;;6.13;56.28
35908;BME280;22003;50.320;8.054;2023-03-01T14:56:01;100270.94;;;6.01;57.84
35908;BME280;22003;50.320;8.054;2023-03-01T14:58:32;100272.38;;;5.90;58.21
35908;BME280;22003;50.320;8.054;2023-03-01T15:01:00;100233.06;;;5.69;57.60
35908;BME280;22003;50.320;8.054;2023-03-01T15:03:36;100250.03;;;5.98;58.38
35908;BME280;22003;50.320;8.054;2023-03-01T15:06:06;100166.13;;;5.42;57.57
35908;BME280;22003;50.320;8.054;2023-03-01T15:08:32;100192.78;;;5.51;57.14
35908;BME280;22003;50.320;8.054;2023-03-01T15:11:15;100234.00;;;5.86;57.51
35908;BME280;22003;50.320;8.054;2023-03-01T15:13:42;100148.72;;;5.22;57.32
35908;BME280;22003;50.320;8.054;2023-03-01T15:16:12;100208.25;;;5.57;57.64
35908;BME280;22003;50.320;8.054;2023-03-01T15:18:44;100179.78;;;5.48;58.32
35908;BME280;22003;50.320;8.054;2023-03-01T15:21:20;100232.06;;;5.72;56.91
35908;BME280;22003;50.320;8.054;2023-03-01T15:23:50;100232.22;;;5.69;58.59
35908;BME280;22003;50.320;8.054;2023-03-01T15:26:24;100229.72;;;5.66;57.33
35908;BME280;22003;50.320;8.054;2023-03-01T15:28:52;100225.03;;;5.72;57.91
35908;BME280;22003;50.320;8.054;2023-03-01T15:31:21;100225.88;;;5.55;55.25
35908;BME280;22003;50.320;8.054;2023-03-01T15:33:47;100226.78;;;5.54;56.37
35908;BME280;22003;50.320;8.054;2023-03-01T15:36:42;100232.44;;;5.47;56.76
35908;BME280;22003;50.320;8.054;2023-03-01T15:39:42;100229.19;;;5.42;56.03
35908;BME280;22003;50.320;8.054;2023-03-01T15:45:07;100176.50;;;5.09;55.81
35908;BME280;22003;50.320;8.054;2023-03-01T15:47:34;100211.38;;;5.12;56.47
35908;BME280;22003;50.320;8.054;2023-03-01T15:50:00;100205.50;;;5.24;56.38
35908;BME280;22003;50.320;8.054;2023-03-01T15:52:33;100229.06;;;5.26;55.66
35908;BME280;22003;50.320;8.054;2023-03-01T15:55:04;100229.75;;;5.12;56.19
35908;BME280;22003;50.320;8.054;2023-03-01T15:57:30;100137.63;;;4.62;55.60
35908;BME280;22003;50.320;8.054;2023-03-01T15:59:55;100219.41;;;5.26;56.42
35908;BME280;22003;50.320;8.054;2023-03-01T16:02:22;100233.03;;;5.35;57.03
35908;BME280;22003;50.320;8.054;2023-03-01T16:04:48;100167.06;;;5.04;55.25
35908;BME280;22003;50.320;8.054;2023-03-01T16:07:14;100225.25;;;4.78;58.74
35908;BME280;22003;50.320;8.054;2023-03-01T16:09:39;100181.81;;;4.52;58.26
35908;BME280;22003;50.320;8.054;2023-03-01T16:12:05;100233.81;;;4.82;56.75
35908;BME280;22003;50.320;8.054;2023-03-01T16:14:30;100207.97;;;4.54;57.45
35908;BME280;22003;50.320;8.054;2023-03-01T16:16:56;100236.63;;;4.58;58.33
35908;BME280;22003;50.320;8.054;2023-03-01T16:19:21;100231.66;;;4.52;57.91
35908;BME280;22003;50.320;8.054;2023-03-01T16:21:46;100245.44;;;4.57;57.09
35908;BME280;22003;50.320;8.054;2023-03-01T16:24:13;100199.16;;;4.17;58.23
35908;BME280;22003;50.320;8.054;2023-03-01T16:26:39;100213.41;;;4.11;58.92
35908;BME280;22003;50.320;8.054;2023-03-01T16:29:04;100259.00;;;4.28;58.50
35908;BME280;22003;50.320;8.054;2023-03-01T16:31:30;100244.59;;;4.17;59.10
35908;BME280;22003;50.320;8.054;2023-03-01T16:33:56;100246.75;;;4.08;59.18
35908;BME280;22003;50.320;8.054;2023-03-01T16:36:23;100240.84;;;4.03;59.14
35908;BME280;22003;50.320;8.054;2023-03-01T16:38:53;100255.41;;;3.89;60.11
35908;BME280;22003;50.320;8.054;2023-03-01T16:41:20;100257.28;;;3.65;60.96
35908;BME280;22003;50.320;8.054;2023-03-01T16:43:46;100183.22;;;3.20;59.94
35908;BME280;22003;50.320;8.054;2023-03-01T16:46:20;100239.69;;;3.47;60.46
35908;BME280;22003;50.320;8.054;2023-03-01T16:48:47;100237.69;;;3.54;58.54
35908;BME280;22003;50.320;8.054;2023-03-01T16:51:12;100246.63;;;3.48;59.44
35908;BME280;22003;50.320;8.054;2023-03-01T16:53:38;100223.06;;;3.06;61.69
35908;BME280;22003;50.320;8.054;2023-03-01T16:56:05;100244.19;;;3.43;59.82
35908;BME280;22003;50.320;8.054;2023-03-01T16:58:31;100192.09;;;2.72;62.44
35908;BME280;22003;50.320;8.054;2023-03-01T17:00:56;100255.84;;;3.14;61.30
35908;BME280;22003;50.320;8.054;2023-03-01T17:03:23;100222.53;;;3.40;58.68
35908;BME280;22003;50.320;8.054;2023-03-01T17:05:49;100202.72;;;3.12;59.18
35908;BME280;22003;50.320;8.054;2023-03-01T17:08:15;100245.97;;;3.21;60.18
35908;BME280;22003;50.320;8.054;2023-03-01T17:10:41;100254.34;;;3.31;59.60
35908;BME280;22003;50.320;8.054;2023-03-01T17:13:10;100259.88;;;3.45;58.69
35908;BME280;22003;50.320;8.054;2023-03-01T17:15:40;100256.41;;;3.44;58.36
35908;BME280;22003;50.320;8.054;2023-03-01T17:18:05;100260.66;;;3.25;59.04
35908;BME280;22003;50.320;8.054;2023-03-01T17:20:30;100231.44;;;2.92;59.91
35908;BME280;22003;50.320;8.054;2023-03-01T17:22:56;100205.53;;;2.62;60.47
35908;BME280;22003;50.320;8.054;2023-03-01T17:25:21;100270.72;;;3.14;59.30
35908;BME280;22003;50.320;8.054;2023-03-01T17:27:46;100264.69;;;3.34;57.24
35908;BME280;22003;50.320;8.054;2023-03-01T17:30:13;100255.31;;;2.83;59.54
35908;BME280;22003;50.320;8.054;2023-03-01T17:32:38;100268.34;;;3.08;58.24
35908;BME280;22003;50.320;8.054;2023-03-01T17:35:04;100278.97;;;3.03;58.27
35908;BME280;22003;50.320;8.054;2023-03-01T17:37:29;100276.00;;;3.12;57.35
35908;BME280;22003;50.320;8.054;2023-03-01T17:39:55;100201.94;;;2.65;57.08
35908;BME280;22003;50.320;8.054;2023-03-01T17:42:20;100266.09;;;2.75;59.43
35908;BME280;22003;50.320;8.054;2023-03-01T17:44:45;100279.63;;;2.86;58.41
35908;BME280;22003;50.320;8.054;2023-03-01T17:47:10;100278.00;;;2.84;58.43
35908;BME280;22003;50.320;8.054;2023-03-01T17:49:36;100199.19;;;2.23;58.80
35908;BME280;22003;50.320;8.054;2023-03-01T17:52:01;100282.09;;;2.68;59.09
35908;BME280;22003;50.320;8.054;2023-03-01T17:54:26;100276.94;;;2.41;60.75
35908;BME280;22003;50.320;8.054;2023-03-01T17:56:52;100271.59;;;2.44;59.90
35908;BME280;22003;50.320;8.054;2023-03-01T17:59:18;100248.88;;;2.46;58.83
35908;BME280;22003;50.320;8.054;2023-03-01T18:01:43;100278.50;;;2.70;58.66
35908;BME280;22003;50.320;8.054;2023-03-01T18:04:09;100219.44;;;2.16;59.33
35908;BME280;22003;50.320;8.054;2023-03-01T18:06:36;100284.34;;;2.53;59.14
35908;BME280;22003;50.320;8.054;2023-03-01T18:09:01;100286.50;;;2.65;58.02
35908;BME280;22003;50.320;8.054;2023-03-01T18:11:27;100221.09;;;2.19;58.59
35908;BME280;22003;50.320;8.054;2023-03-01T18:13:53;100288.78;;;2.51;58.70
35908;BME280;22003;50.320;8.054;2023-03-01T18:16:19;100285.63;;;2.67;58.54
35908;BME280;22003;50.320;8.054;2023-03-01T18:18:45;100287.94;;;2.74;57.40
35908;BME280;22003;50.320;8.054;2023-03-01T18:21:12;100288.72;;;2.76;57.51
35908;BME280;22003;50.320;8.054;2023-03-01T18:23:37;100277.69;;;2.45;58.48
35908;BME280;22003;50.320;8.054;2023-03-01T18:26:06;100280.94;;;2.26;59.20
35908;BME280;22003;50.320;8.054;2023-03-01T18:28:32;100275.88;;;2.22;59.72
35908;BME280;22003;50.320;8.054;2023-03-01T18:31:00;100223.03;;;1.64;60.35
35908;BME280;22003;50.320;8.054;2023-03-01T18:33:27;100226.47;;;1.91;59.78
35908;BME280;22003;50.320;8.054;2023-03-01T18:35:52;100202.88;;;1.92;58.49
35908;BME280;22003;50.320;8.054;2023-03-01T18:38:18;100258.97;;;1.82;60.81
35908;BME280;22003;50.320;8.054;2023-03-01T18:40:43;100269.38;;;2.08;59.53
35908;BME280;22003;50.320;8.054;2023-03-01T18:43:09;100245.41;;;1.71;60.55
35908;BME280;22003;50.320;8.054;2023-03-01T18:45:34;100269.38;;;2.08;59.57
35908;BME280;22003;50.320;8.054;2023-03-01T18:47:59;100270.50;;;2.26;58.90
35908;BME280;22003;50.320;8.054;2023-03-01T18:50:25;100272.84;;;2.09;59.26
35908;BME280;22003;50.320;8.054;2023-03-01T18:52:50;100270.34;;;2.06;59.36
35908;BME280;22003;50.320;8.054;2023-03-01T18:55:16;100196.16;;;1.60;59.41
35908;BME280;22003;50.320;8.054;2023-03-01T18:57:41;100261.56;;;1.83;60.69
35908;BME280;22003;50.320;8.054;2023-03-01T19:00:07;100203.25;;;1.30;61.05
35908;BME280;22003;50.320;8.054;2023-03-01T19:02:32;100268.56;;;1.81;60.48
35908;BME280;22003;50.320;8.054;2023-03-01T19:04:57;100197.06;;;1.34;60.87
35908;BME280;22003;50.320;8.054;2023-03-01T19:07:23;100226.56;;;1.63;60.57
35908;BME280;22003;50.320;8.054;2023-03-01T19:09:49;100231.19;;;1.79;60.33
35908;BME280;22003;50.320;8.054;2023-03-01T19:12:14;100168.81;;;1.45;60.14
35908;BME280;22003;50.320;8.054;2023-03-01T19:14:40;100245.56;;;1.66;61.92
35908;BME280;22003;50.320;8.054;2023-03-01T19:17:05;100244.56;;;1.70;61.41
35908;BME280;22003;50.320;8.054;2023-03-01T19:19:30;100239.34;;;1.44;62.79
35908;BME280;22003;50.320;8.054;2023-03-01T19:21:55;100194.16;;;1.15;62.30